sensor_id;sensor_type;location;lat;lon;timestamp;P1;durP1;ratioP1;P2;durP2;ratioP2
6029;SDS011;3043;42.682;23.376;2022-12-07T00:01:06;30.60;;;16.67;;
6029;SDS011;3043;42.682;23.376;2022-12-07T00:03:33;27.97;;;15.93;;
6029;SDS011;3043;42.682;23.376;2022-12-07T00:05:59;30.17;;;16.60;;
6029;SDS011;3043;42.682;23.376;2022-12-07T00:08:26;31.87;;;17.57;;
6029;SDS011;3043;42.682;23.376;2022-12-07T00:10:51;35.23;;;18.00;;
6029;SDS011;3043;42.682;23.376;2022-12-07T00:13:17;28.53;;;15.43;;
6029;SDS011;3043;42.682;23.376;2022-12-07T00:15:42;28.17;;;16.47;;
6029;SDS011;3043;42.682;23.376;2022-12-07T00:18:08;28.60;;;15.70;;
6029;SDS011;3043;42.682;23.376;2022-12-07T00:20:33;26.13;;;15.67;;
6029;SDS011;3043;42.682;23.376;2022-12-07T00:22:59;24.77;;;14.40;;
6029;SDS011;3043;42.682;23.376;2022-12-07T00:25:24;29.87;;;15.13;;
6029;SDS011;3043;42.682;23.376;2022-12-07T00:27:52;28.80;;;15.53;;
6029;SDS011;3043;42.682;23.376;2022-12-07T00:30:20;28.60;;;15.30;;
6029;SDS011;3043;42.682;23.376;2022-12-07T00:32:46;26.50;;;15.43;;
6029;SDS011;3043;42.682;23.376;2022-12-07T00:35:11;26.17;;;14.80;;
6029;SDS011;3043;42.682;23.376;2022-12-07T00:37:37;29.20;;;17.87;;
6029;SDS011;3043;42.682;23.376;2022-12-07T00:40:02;32.90;;;16.87;;
6029;SDS011;3043;42.682;23.376;2022-12-07T00:42:28;33.40;;;17.13;;
6029;SDS011;3043;42.682;23.376;2022-12-07T00:44:53;30.77;;;15.90;;
6029;SDS011;3043;42.682;23.376;2022-12-07T00:47:19;28.60;;;16.00;;
6029;SDS011;3043;42.682;23.376;2022-12-07T00:49:44;29.30;;;16.70;;
6029;SDS011;3043;42.682;23.376;2022-12-07T00:52:09;34.70;;;18.30;;
6029;SDS011;3043;42.682;23.376;2022-12-07T00:54:35;30.10;;;18.20;;
6029;SDS011;3043;42.682;23.376;2022-12-07T00:57:00;33.67;;;17.93;;
6029;SDS011;3043;42.682;23.376;2022-12-07T00:59:26;32.33;;;18.77;;
6029;SDS011;3043;42.682;23.376;2022-12-07T01:01:51;29.33;;;17.87;;
6029;SDS011;3043;42.682;23.376;2022-12-07T01:04:16;34.10;;;19.87;;
6029;SDS011;3043;42.682;23.376;2022-12-07T01:06:42;33.70;;;20.47;;
6029;SDS011;3043;42.682;23.376;2022-12-07T01:09:07;33.37;;;20.07;;
6029;SDS011;3043;42.682;23.376;2022-12-07T01:11:33;28.77;;;16.93;;
6029;SDS011;3043;42.682;23.376;2022-12-07T01:13:58;32.63;;;18.37;;
6029;SDS011;3043;42.682;23.376;2022-12-07T01:16:27;33.70;;;17.43;;
6029;SDS011;3043;42.682;23.376;2022-12-07T01:18:54;35.53;;;18.50;;
6029;SDS011;3043;42.682;23.376;2022-12-07T01:21:24;31.90;;;18.30;;
6029;SDS011;3043;42.682;23.376;2022-12-07T01:23:56;32.20;;;17.97;;
6029;SDS011;3043;42.682;23.376;2022-12-07T01:26:23;32.83;;;18.70;;
6029;SDS011;3043;42.682;23.376;2022-12-07T01:28:49;31.43;;;18.33;;
6029;SDS011;3043;42.682;23.376;2022-12-07T01:31:17;32.97;;;18.03;;
6029;SDS011;3043;42.682;23.376;2022-12-07T01:33:45;29.83;;;18.23;;
6029;SDS011;3043;42.682;23.376;2022-12-07T01:38:41;32.63;;;17.37;;
6029;SDS011;3043;42.682;23.376;2022-12-07T01:41:06;27.73;;;16.17;;
6029;SDS011;3043;42.682;23.376;2022-12-07T01:43:33;26.33;;;17.00;;
6029;SDS011;3043;42.682;23.376;2022-12-07T01:45:59;27.37;;;16.70;;
6029;SDS011;3043;42.682;23.376;2022-12-07T01:48:31;31.60;;;17.33;;
6029;SDS011;3043;42.682;23.376;2022-12-07T01:51:04;42.57;;;23.10;;
6029;SDS011;3043;42.682;23.376;2022-12-07T01:53:34;36.07;;;21.70;;
6029;SDS011;3043;42.682;23.376;2022-12-07T01:56:03;38.90;;;20.80;;
6029;SDS011;3043;42.682;23.376;2022-12-07T01:58:29;38.23;;;21.07;;
6029;SDS011;3043;42.682;23.376;2022-12-07T02:00:55;34.80;;;19.97;;
6029;SDS011;3043;42.682;23.376;2022-12-07T02:05:52;34.40;;;18.53;;
6029;SDS011;3043;42.682;23.376;2022-12-07T02:08:19;37.83;;;19.80;;
6029;SDS011;3043;42.682;23.376;2022-12-07T02:10:45;32.50;;;17.43;;
6029;SDS011;3043;42.682;23.376;2022-12-07T02:13:12;34.10;;;19.80;;
6029;SDS011;3043;42.682;23.376;2022-12-07T02:23:42;32.43;;;17.20;;
6029;SDS011;3043;42.682;23.376;2022-12-07T02:26:16;27.27;;;14.27;;
6029;SDS011;3043;42.682;23.376;2022-12-07T02:31:29;31.43;;;21.23;;
6029;SDS011;3043;42.682;23.376;2022-12-07T02:37:02;29.70;;;16.93;;
6029;SDS011;3043;42.682;23.376;2022-12-07T02:39:36;27.57;;;15.40;;
6029;SDS011;3043;42.682;23.376;2022-12-07T02:42:09;31.50;;;16.33;;
6029;SDS011;3043;42.682;23.376;2022-12-07T02:44:44;31.97;;;18.03;;
6029;SDS011;3043;42.682;23.376;2022-12-07T02:47:12;32.43;;;18.50;;
6029;SDS011;3043;42.682;23.376;2022-12-07T02:49:41;30.53;;;18.53;;
6029;SDS011;3043;42.682;23.376;2022-12-07T02:52:07;26.73;;;15.23;;
6029;SDS011;3043;42.682;23.376;2022-12-07T02:54:32;32.33;;;18.67;;
6029;SDS011;3043;42.682;23.376;2022-12-07T02:59:47;27.73;;;15.10;;
6029;SDS011;3043;42.682;23.376;2022-12-07T03:07:59;42.03;;;22.70;;
6029;SDS011;3043;42.682;23.376;2022-12-07T03:10:58;37.67;;;23.57;;
6029;SDS011;3043;42.682;23.376;2022-12-07T03:13:37;30.00;;;15.97;;
6029;SDS011;3043;42.682;23.376;2022-12-07T03:21:42;30.10;;;17.90;;
6029;SDS011;3043;42.682;23.376;2022-12-07T03:24:14;27.00;;;15.60;;
6029;SDS011;3043;42.682;23.376;2022-12-07T03:26:43;27.90;;;14.93;;
6029;SDS011;3043;42.682;23.376;2022-12-07T03:29:17;28.23;;;15.50;;
6029;SDS011;3043;42.682;23.376;2022-12-07T03:31:52;25.30;;;14.17;;
6029;SDS011;3043;42.682;23.376;2022-12-07T03:34:50;24.40;;;15.53;;
6029;SDS011;3043;42.682;23.376;2022-12-07T03:37:28;27.03;;;15.40;;
6029;SDS011;3043;42.682;23.376;2022-12-07T03:42:27;33.30;;;17.23;;
6029;SDS011;3043;42.682;23.376;2022-12-07T03:44:53;28.27;;;16.13;;
6029;SDS011;3043;42.682;23.376;2022-12-07T03:49:55;29.70;;;16.10;;
6029;SDS011;3043;42.682;23.376;2022-12-07T03:52:39;28.37;;;16.97;;
6029;SDS011;3043;42.682;23.376;2022-12-07T03:57:30;29.47;;;16.87;;
6029;SDS011;3043;42.682;23.376;2022-12-07T03:59:58;36.20;;;18.97;;
6029;SDS011;3043;42.682;23.376;2022-12-07T04:02:25;33.40;;;19.30;;
6029;SDS011;3043;42.682;23.376;2022-12-07T04:04:53;29.20;;;18.47;;
6029;SDS011;3043;42.682;23.376;2022-12-07T04:07:19;36.37;;;18.83;;
6029;SDS011;3043;42.682;23.376;2022-12-07T04:09:45;38.97;;;20.03;;
6029;SDS011;3043;42.682;23.376;2022-12-07T04:12:10;33.63;;;19.20;;
6029;SDS011;3043;42.682;23.376;2022-12-07T04:14:36;34.03;;;18.90;;
6029;SDS011;3043;42.682;23.376;2022-12-07T04:17:01;35.30;;;19.43;;
6029;SDS011;3043;42.682;23.376;2022-12-07T04:19:28;36.17;;;18.47;;
6029;SDS011;3043;42.682;23.376;2022-12-07T04:21:55;33.60;;;17.33;;
6029;SDS011;3043;42.682;23.376;2022-12-07T04:24:23;33.73;;;17.77;;
6029;SDS011;3043;42.682;23.376;2022-12-07T04:26:48;36.97;;;18.57;;
6029;SDS011;3043;42.682;23.376;2022-12-07T04:29:14;38.43;;;19.77;;
6029;SDS011;3043;42.682;23.376;2022-12-07T04:31:40;37.27;;;19.93;;
6029;SDS011;3043;42.682;23.376;2022-12-07T04:34:06;34.17;;;19.30;;
6029;SDS011;3043;42.682;23.376;2022-12-07T04:36:33;37.30;;;19.03;;
6029;SDS011;3043;42.682;23.376;2022-12-07T04:38:59;37.73;;;19.00;;
6029;SDS011;3043;42.682;23.376;2022-12-07T04:41:24;35.17;;;19.53;;
6029;SDS011;3043;42.682;23.376;2022-12-07T04:43:56;34.17;;;18.53;;
6029;SDS011;3043;42.682;23.376;2022-12-07T04:46:23;36.77;;;20.47;;
6029;SDS011;3043;42.682;23.376;2022-12-07T04:48:50;33.50;;;19.67;;
6029;SDS011;3043;42.682;23.376;2022-12-07T04:51:18;35.90;;;19.77;;
6029;SDS011;3043;42.682;23.376;2022-12-07T04:53:48;37.00;;;20.27;;
6029;SDS011;3043;42.682;23.376;2022-12-07T04:56:14;37.50;;;19.93;;
6029;SDS011;3043;42.682;23.376;2022-12-07T04:58:41;40.63;;;22.63;;
6029;SDS011;3043;42.682;23.376;2022-12-07T05:01:07;42.13;;;22.40;;
6029;SDS011;3043;42.682;23.376;2022-12-07T05:03:33;40.03;;;21.97;;
6029;SDS011;3043;42.682;23.376;2022-12-07T05:05:58;37.90;;;21.17;;
6029;SDS011;3043;42.682;23.376;2022-12-07T05:08:24;37.37;;;21.03;;
6029;SDS011;3043;42.682;23.376;2022-12-07T05:10:49;41.87;;;22.03;;
6029;SDS011;3043;42.682;23.376;2022-12-07T05:13:15;37.93;;;20.70;;
6029;SDS011;3043;42.682;23.376;2022-12-07T05:15:40;36.83;;;21.53;;
6029;SDS011;3043;42.682;23.376;2022-12-07T05:18:08;39.67;;;23.20;;
6029;SDS011;3043;42.682;23.376;2022-12-07T05:20:36;45.43;;;24.80;;
6029;SDS011;3043;42.682;23.376;2022-12-07T05:23:02;38.00;;;21.63;;
6029;SDS011;3043;42.682;23.376;2022-12-07T05:25:28;46.10;;;25.60;;
6029;SDS011;3043;42.682;23.376;2022-12-07T05:27:54;37.67;;;22.87;;
6029;SDS011;3043;42.682;23.376;2022-12-07T05:30:20;45.50;;;24.97;;
6029;SDS011;3043;42.682;23.376;2022-12-07T05:32:45;44.07;;;23.17;;
6029;SDS011;3043;42.682;23.376;2022-12-07T05:35:11;45.67;;;25.50;;
6029;SDS011;3043;42.682;23.376;2022-12-07T05:37:36;51.40;;;27.00;;
6029;SDS011;3043;42.682;23.376;2022-12-07T05:40:02;56.63;;;31.07;;
6029;SDS011;3043;42.682;23.376;2022-12-07T05:42:28;48.93;;;26.63;;
6029;SDS011;3043;42.682;23.376;2022-12-07T05:44:53;44.57;;;25.53;;
6029;SDS011;3043;42.682;23.376;2022-12-07T05:47:19;42.47;;;25.13;;
6029;SDS011;3043;42.682;23.376;2022-12-07T05:49:44;43.63;;;22.13;;
6029;SDS011;3043;42.682;23.376;2022-12-07T05:52:10;44.10;;;25.47;;
6029;SDS011;3043;42.682;23.376;2022-12-07T05:54:36;53.33;;;27.07;;
6029;SDS011;3043;42.682;23.376;2022-12-07T05:57:01;39.07;;;24.03;;
6029;SDS011;3043;42.682;23.376;2022-12-07T05:59:27;37.77;;;24.00;;
6029;SDS011;3043;42.682;23.376;2022-12-07T06:04:26;47.50;;;26.17;;
6029;SDS011;3043;42.682;23.376;2022-12-07T06:06:54;57.97;;;30.90;;
6029;SDS011;3043;42.682;23.376;2022-12-07T06:09:20;53.90;;;28.43;;
6029;SDS011;3043;42.682;23.376;2022-12-07T06:11:47;51.20;;;29.63;;
6029;SDS011;3043;42.682;23.376;2022-12-07T06:14:31;56.43;;;31.57;;
6029;SDS011;3043;42.682;23.376;2022-12-07T06:16:57;54.10;;;30.67;;
6029;SDS011;3043;42.682;23.376;2022-12-07T06:19:23;53.83;;;32.80;;
6029;SDS011;3043;42.682;23.376;2022-12-07T06:21:48;57.83;;;33.53;;
6029;SDS011;3043;42.682;23.376;2022-12-07T06:24:15;53.07;;;31.87;;
6029;SDS011;3043;42.682;23.376;2022-12-07T06:26:41;53.30;;;30.77;;
6029;SDS011;3043;42.682;23.376;2022-12-07T06:29:06;54.27;;;32.10;;
6029;SDS011;3043;42.682;23.376;2022-12-07T06:31:32;53.03;;;29.47;;
6029;SDS011;3043;42.682;23.376;2022-12-07T06:34:02;54.93;;;30.37;;
6029;SDS011;3043;42.682;23.376;2022-12-07T06:36:33;55.00;;;29.63;;
6029;SDS011;3043;42.682;23.376;2022-12-07T06:38:59;53.37;;;31.27;;
6029;SDS011;3043;42.682;23.376;2022-12-07T06:41:24;53.20;;;30.83;;
6029;SDS011;3043;42.682;23.376;2022-12-07T06:43:50;52.80;;;30.33;;
6029;SDS011;3043;42.682;23.376;2022-12-07T06:46:16;48.03;;;29.27;;
6029;SDS011;3043;42.682;23.376;2022-12-07T06:48:43;49.50;;;30.03;;
6029;SDS011;3043;42.682;23.376;2022-12-07T06:51:09;52.37;;;30.77;;
6029;SDS011;3043;42.682;23.376;2022-12-07T06:53:35;50.53;;;29.47;;
6029;SDS011;3043;42.682;23.376;2022-12-07T06:56:03;50.33;;;28.77;;
6029;SDS011;3043;42.682;23.376;2022-12-07T06:58:29;49.10;;;27.67;;
6029;SDS011;3043;42.682;23.376;2022-12-07T07:00:55;51.53;;;28.63;;
6029;SDS011;3043;42.682;23.376;2022-12-07T07:03:21;63.33;;;33.33;;
6029;SDS011;3043;42.682;23.376;2022-12-07T07:05:46;54.03;;;33.27;;
6029;SDS011;3043;42.682;23.376;2022-12-07T07:08:12;54.30;;;33.73;;
6029;SDS011;3043;42.682;23.376;2022-12-07T07:10:38;59.47;;;32.40;;
6029;SDS011;3043;42.682;23.376;2022-12-07T07:13:04;54.37;;;31.37;;
6029;SDS011;3043;42.682;23.376;2022-12-07T07:15:30;60.03;;;35.27;;
6029;SDS011;3043;42.682;23.376;2022-12-07T07:17:56;57.77;;;34.73;;
6029;SDS011;3043;42.682;23.376;2022-12-07T07:20:22;58.70;;;33.27;;
6029;SDS011;3043;42.682;23.376;2022-12-07T07:22:48;55.33;;;32.37;;
6029;SDS011;3043;42.682;23.376;2022-12-07T07:25:13;48.50;;;29.00;;
6029;SDS011;3043;42.682;23.376;2022-12-07T07:27:39;51.73;;;28.90;;
6029;SDS011;3043;42.682;23.376;2022-12-07T07:30:05;44.67;;;28.83;;
6029;SDS011;3043;42.682;23.376;2022-12-07T07:32:31;47.43;;;29.57;;
6029;SDS011;3043;42.682;23.376;2022-12-07T07:34:56;43.93;;;26.87;;
6029;SDS011;3043;42.682;23.376;2022-12-07T07:37:22;46.63;;;27.97;;
6029;SDS011;3043;42.682;23.376;2022-12-07T07:39:48;54.93;;;34.13;;
6029;SDS011;3043;42.682;23.376;2022-12-07T07:42:13;74.40;;;40.83;;
6029;SDS011;3043;42.682;23.376;2022-12-07T07:44:39;84.93;;;50.17;;
6029;SDS011;3043;42.682;23.376;2022-12-07T07:47:04;86.23;;;55.07;;
6029;SDS011;3043;42.682;23.376;2022-12-07T07:49:30;121.63;;;70.73;;
6029;SDS011;3043;42.682;23.376;2022-12-07T07:51:55;99.93;;;60.17;;
6029;SDS011;3043;42.682;23.376;2022-12-07T07:54:21;80.43;;;50.43;;
6029;SDS011;3043;42.682;23.376;2022-12-07T07:56:46;82.63;;;52.17;;
6029;SDS011;3043;42.682;23.376;2022-12-07T07:59:12;80.33;;;48.40;;
6029;SDS011;3043;42.682;23.376;2022-12-07T08:01:37;52.67;;;30.93;;
6029;SDS011;3043;42.682;23.376;2022-12-07T08:04:03;49.67;;;32.17;;
6029;SDS011;3043;42.682;23.376;2022-12-07T08:06:28;55.87;;;35.67;;
6029;SDS011;3043;42.682;23.376;2022-12-07T08:08:54;42.23;;;28.03;;
6029;SDS011;3043;42.682;23.376;2022-12-07T08:11:19;47.17;;;29.03;;
6029;SDS011;3043;42.682;23.376;2022-12-07T08:13:45;39.63;;;26.77;;
6029;SDS011;3043;42.682;23.376;2022-12-07T08:16:14;42.20;;;27.00;;
6029;SDS011;3043;42.682;23.376;2022-12-07T08:18:40;48.10;;;27.53;;
6029;SDS011;3043;42.682;23.376;2022-12-07T08:21:06;43.30;;;26.77;;
6029;SDS011;3043;42.682;23.376;2022-12-07T08:23:34;46.27;;;26.07;;
6029;SDS011;3043;42.682;23.376;2022-12-07T08:26:04;42.37;;;27.63;;
6029;SDS011;3043;42.682;23.376;2022-12-07T08:28:31;39.90;;;26.37;;
6029;SDS011;3043;42.682;23.376;2022-12-07T08:31:01;42.07;;;26.43;;
6029;SDS011;3043;42.682;23.376;2022-12-07T08:33:47;39.40;;;26.60;;
6029;SDS011;3043;42.682;23.376;2022-12-07T08:36:13;42.70;;;26.17;;
6029;SDS011;3043;42.682;23.376;2022-12-07T08:38:40;43.13;;;26.10;;
6029;SDS011;3043;42.682;23.376;2022-12-07T08:41:06;39.10;;;26.53;;
6029;SDS011;3043;42.682;23.376;2022-12-07T08:43:32;41.30;;;27.50;;
6029;SDS011;3043;42.682;23.376;2022-12-07T08:51:34;50.60;;;31.87;;
6029;SDS011;3043;42.682;23.376;2022-12-07T08:54:01;47.73;;;31.70;;
6029;SDS011;3043;42.682;23.376;2022-12-07T08:56:31;52.27;;;31.90;;
6029;SDS011;3043;42.682;23.376;2022-12-07T08:58:57;52.67;;;30.77;;
6029;SDS011;3043;42.682;23.376;2022-12-07T09:01:23;38.20;;;25.93;;
6029;SDS011;3043;42.682;23.376;2022-12-07T09:03:48;37.47;;;23.97;;
6029;SDS011;3043;42.682;23.376;2022-12-07T09:06:14;32.93;;;21.37;;
6029;SDS011;3043;42.682;23.376;2022-12-07T09:08:40;33.30;;;21.20;;
6029;SDS011;3043;42.682;23.376;2022-12-07T09:11:10;35.33;;;20.70;;
6029;SDS011;3043;42.682;23.376;2022-12-07T09:13:36;31.50;;;19.50;;
6029;SDS011;3043;42.682;23.376;2022-12-07T09:16:01;37.30;;;23.00;;
6029;SDS011;3043;42.682;23.376;2022-12-07T09:18:27;34.50;;;21.73;;
6029;SDS011;3043;42.682;23.376;2022-12-07T09:20:52;35.87;;;22.53;;
6029;SDS011;3043;42.682;23.376;2022-12-07T09:23:18;36.63;;;23.50;;
6029;SDS011;3043;42.682;23.376;2022-12-07T09:25:43;35.77;;;21.87;;
6029;SDS011;3043;42.682;23.376;2022-12-07T09:28:09;33.77;;;23.50;;
6029;SDS011;3043;42.682;23.376;2022-12-07T09:30:34;38.13;;;23.30;;
6029;SDS011;3043;42.682;23.376;2022-12-07T09:33:01;37.33;;;23.23;;
6029;SDS011;3043;42.682;23.376;2022-12-07T09:35:27;41.13;;;24.57;;
6029;SDS011;3043;42.682;23.376;2022-12-07T09:37:52;35.03;;;22.83;;
6029;SDS011;3043;42.682;23.376;2022-12-07T09:40:18;36.40;;;22.80;;
6029;SDS011;3043;42.682;23.376;2022-12-07T09:42:47;37.80;;;22.50;;
6029;SDS011;3043;42.682;23.376;2022-12-07T09:45:21;36.73;;;24.77;;
6029;SDS011;3043;42.682;23.376;2022-12-07T09:47:49;38.07;;;25.63;;
6029;SDS011;3043;42.682;23.376;2022-12-07T09:50:24;41.33;;;24.73;;
6029;SDS011;3043;42.682;23.376;2022-12-07T09:52:51;36.07;;;22.77;;
6029;SDS011;3043;42.682;23.376;2022-12-07T09:55:28;37.40;;;24.20;;
6029;SDS011;3043;42.682;23.376;2022-12-07T09:57:55;36.00;;;23.67;;
6029;SDS011;3043;42.682;23.376;2022-12-07T10:00:23;36.20;;;22.20;;
6029;SDS011;3043;42.682;23.376;2022-12-07T10:05:24;33.07;;;21.40;;
6029;SDS011;3043;42.682;23.376;2022-12-07T10:07:50;35.33;;;22.23;;
6029;SDS011;3043;42.682;23.376;2022-12-07T10:10:23;32.37;;;21.30;;
6029;SDS011;3043;42.682;23.376;2022-12-07T10:12:55;34.23;;;23.63;;
6029;SDS011;3043;42.682;23.376;2022-12-07T10:15:21;34.47;;;23.27;;
6029;SDS011;3043;42.682;23.376;2022-12-07T10:17:48;39.37;;;22.00;;
6029;SDS011;3043;42.682;23.376;2022-12-07T10:20:16;34.43;;;20.97;;
6029;SDS011;3043;42.682;23.376;2022-12-07T10:22:58;33.60;;;22.53;;
6029;SDS011;3043;42.682;23.376;2022-12-07T10:25:31;39.37;;;24.93;;
6029;SDS011;3043;42.682;23.376;2022-12-07T10:27:59;39.13;;;24.80;;
6029;SDS011;3043;42.682;23.376;2022-12-07T10:33:53;33.53;;;19.77;;
6029;SDS011;3043;42.682;23.376;2022-12-07T10:36:25;34.33;;;20.77;;
6029;SDS011;3043;42.682;23.376;2022-12-07T10:38:53;29.73;;;19.23;;
6029;SDS011;3043;42.682;23.376;2022-12-07T10:41:29;33.40;;;18.80;;
6029;SDS011;3043;42.682;23.376;2022-12-07T10:43:55;34.07;;;19.23;;
6029;SDS011;3043;42.682;23.376;2022-12-07T10:49:35;26.73;;;16.07;;
6029;SDS011;3043;42.682;23.376;2022-12-07T11:06:54;29.40;;;17.53;;
6029;SDS011;3043;42.682;23.376;2022-12-07T11:12:38;25.47;;;15.53;;
6029;SDS011;3043;42.682;23.376;2022-12-07T11:15:32;25.73;;;14.43;;
6029;SDS011;3043;42.682;23.376;2022-12-07T11:18:01;28.20;;;16.93;;
6029;SDS011;3043;42.682;23.376;2022-12-07T11:23:42;24.90;;;14.13;;
6029;SDS011;3043;42.682;23.376;2022-12-07T11:31:24;25.90;;;15.47;;
6029;SDS011;3043;42.682;23.376;2022-12-07T11:37:01;22.83;;;13.67;;
6029;SDS011;3043;42.682;23.376;2022-12-07T11:39:35;25.27;;;13.57;;
6029;SDS011;3043;42.682;23.376;2022-12-07T11:42:09;23.33;;;13.83;;
6029;SDS011;3043;42.682;23.376;2022-12-07T11:47:22;20.10;;;13.00;;
6029;SDS011;3043;42.682;23.376;2022-12-07T11:50:03;19.73;;;12.30;;
6029;SDS011;3043;42.682;23.376;2022-12-07T11:55:32;21.33;;;12.30;;
6029;SDS011;3043;42.682;23.376;2022-12-07T12:06:25;21.57;;;13.60;;
6029;SDS011;3043;42.682;23.376;2022-12-07T12:20:40;23.00;;;13.97;;
6029;SDS011;3043;42.682;23.376;2022-12-07T12:23:22;18.73;;;11.40;;
6029;SDS011;3043;42.682;23.376;2022-12-07T12:25:49;22.50;;;13.83;;
6029;SDS011;3043;42.682;23.376;2022-12-07T12:28:25;24.73;;;13.63;;
6029;SDS011;3043;42.682;23.376;2022-12-07T12:31:15;27.00;;;13.90;;
6029;SDS011;3043;42.682;23.376;2022-12-07T12:33:57;25.40;;;13.87;;
6029;SDS011;3043;42.682;23.376;2022-12-07T12:47:03;21.83;;;12.70;;
6029;SDS011;3043;42.682;23.376;2022-12-07T12:49:37;22.87;;;12.87;;
6029;SDS011;3043;42.682;23.376;2022-12-07T12:54:58;24.33;;;14.40;;
6029;SDS011;3043;42.682;23.376;2022-12-07T12:57:30;24.23;;;13.03;;
6029;SDS011;3043;42.682;23.376;2022-12-07T12:59:57;28.53;;;13.00;;
6029;SDS011;3043;42.682;23.376;2022-12-07T13:10:24;22.57;;;13.50;;
6029;SDS011;3043;42.682;23.376;2022-12-07T13:15:43;18.33;;;12.00;;
6029;SDS011;3043;42.682;23.376;2022-12-07T13:23:23;22.83;;;12.70;;
6029;SDS011;3043;42.682;23.376;2022-12-07T13:25:59;19.43;;;12.57;;
6029;SDS011;3043;42.682;23.376;2022-12-07T13:28:26;21.37;;;12.17;;
6029;SDS011;3043;42.682;23.376;2022-12-07T13:31:04;22.53;;;12.83;;
6029;SDS011;3043;42.682;23.376;2022-12-07T13:33:54;20.43;;;12.40;;
6029;SDS011;3043;42.682;23.376;2022-12-07T13:36:27;18.60;;;12.53;;
6029;SDS011;3043;42.682;23.376;2022-12-07T13:39:00;21.57;;;12.17;;
6029;SDS011;3043;42.682;23.376;2022-12-07T13:41:40;26.20;;;14.10;;
6029;SDS011;3043;42.682;23.376;2022-12-07T13:44:16;23.73;;;13.50;;
6029;SDS011;3043;42.682;23.376;2022-12-07T13:49:33;21.83;;;12.80;;
6029;SDS011;3043;42.682;23.376;2022-12-07T13:52:12;23.80;;;12.70;;
6029;SDS011;3043;42.682;23.376;2022-12-07T13:55:28;25.23;;;12.93;;
6029;SDS011;3043;42.682;23.376;2022-12-07T13:57:29;24.77;;;12.77;;
6029;SDS011;3043;42.682;23.376;2022-12-07T13:59:56;22.80;;;11.97;;
6029;SDS011;3043;42.682;23.376;2022-12-07T14:02:32;23.07;;;12.83;;
6029;SDS011;3043;42.682;23.376;2022-12-07T14:07:48;23.77;;;13.20;;
6029;SDS011;3043;42.682;23.376;2022-12-07T14:10:28;24.57;;;13.23;;
6029;SDS011;3043;42.682;23.376;2022-12-07T14:12:58;19.93;;;12.50;;
6029;SDS011;3043;42.682;23.376;2022-12-07T14:15:29;22.83;;;12.40;;
6029;SDS011;3043;42.682;23.376;2022-12-07T14:17:57;21.23;;;13.83;;
6029;SDS011;3043;42.682;23.376;2022-12-07T14:22:55;24.17;;;12.90;;
6029;SDS011;3043;42.682;23.376;2022-12-07T14:25:24;26.43;;;13.03;;
6029;SDS011;3043;42.682;23.376;2022-12-07T14:27:58;20.30;;;13.27;;
6029;SDS011;3043;42.682;23.376;2022-12-07T14:30:29;22.10;;;12.23;;
6029;SDS011;3043;42.682;23.376;2022-12-07T14:32:57;23.37;;;13.43;;
6029;SDS011;3043;42.682;23.376;2022-12-07T14:35:25;26.97;;;13.73;;
6029;SDS011;3043;42.682;23.376;2022-12-07T14:37:51;23.17;;;14.27;;
6029;SDS011;3043;42.682;23.376;2022-12-07T14:40:18;24.47;;;12.63;;
6029;SDS011;3043;42.682;23.376;2022-12-07T14:42:46;20.27;;;12.33;;
6029;SDS011;3043;42.682;23.376;2022-12-07T14:45:19;22.03;;;11.47;;
6029;SDS011;3043;42.682;23.376;2022-12-07T14:47:47;21.80;;;13.20;;
6029;SDS011;3043;42.682;23.376;2022-12-07T14:50:17;20.83;;;12.50;;
6029;SDS011;3043;42.682;23.376;2022-12-07T14:52:45;21.10;;;12.77;;
6029;SDS011;3043;42.682;23.376;2022-12-07T14:57:51;23.30;;;13.00;;
6029;SDS011;3043;42.682;23.376;2022-12-07T15:00:17;29.00;;;15.33;;
6029;SDS011;3043;42.682;23.376;2022-12-07T15:02:44;29.03;;;15.77;;
6029;SDS011;3043;42.682;23.376;2022-12-07T15:05:10;33.93;;;17.93;;
6029;SDS011;3043;42.682;23.376;2022-12-07T15:07:36;34.57;;;17.83;;
6029;SDS011;3043;42.682;23.376;2022-12-07T15:10:02;23.30;;;13.10;;
6029;SDS011;3043;42.682;23.376;2022-12-07T15:12:28;26.30;;;14.23;;
6029;SDS011;3043;42.682;23.376;2022-12-07T15:14:53;25.90;;;14.93;;
6029;SDS011;3043;42.682;23.376;2022-12-07T15:17:19;25.53;;;16.80;;
6029;SDS011;3043;42.682;23.376;2022-12-07T15:19:44;29.53;;;16.63;;
6029;SDS011;3043;42.682;23.376;2022-12-07T15:22:09;26.60;;;15.07;;
6029;SDS011;3043;42.682;23.376;2022-12-07T15:24:36;28.67;;;16.47;;
6029;SDS011;3043;42.682;23.376;2022-12-07T15:27:02;28.50;;;15.63;;
6029;SDS011;3043;42.682;23.376;2022-12-07T15:29:27;29.40;;;15.57;;
6029;SDS011;3043;42.682;23.376;2022-12-07T15:31:53;25.20;;;15.07;;
6029;SDS011;3043;42.682;23.376;2022-12-07T15:34:20;29.50;;;14.80;;
6029;SDS011;3043;42.682;23.376;2022-12-07T15:36:46;29.57;;;16.57;;
6029;SDS011;3043;42.682;23.376;2022-12-07T15:39:11;27.43;;;15.73;;
6029;SDS011;3043;42.682;23.376;2022-12-07T15:41:37;30.43;;;18.13;;
6029;SDS011;3043;42.682;23.376;2022-12-07T15:44:02;33.83;;;18.00;;
6029;SDS011;3043;42.682;23.376;2022-12-07T15:46:47;28.70;;;17.30;;
6029;SDS011;3043;42.682;23.376;2022-12-07T15:49:14;34.00;;;17.23;;
6029;SDS011;3043;42.682;23.376;2022-12-07T15:51:41;27.53;;;17.03;;
6029;SDS011;3043;42.682;23.376;2022-12-07T15:54:09;39.57;;;21.53;;
6029;SDS011;3043;42.682;23.376;2022-12-07T15:56:38;59.53;;;29.60;;
6029;SDS011;3043;42.682;23.376;2022-12-07T15:59:03;67.17;;;33.43;;
6029;SDS011;3043;42.682;23.376;2022-12-07T16:01:29;55.67;;;26.60;;
6029;SDS011;3043;42.682;23.376;2022-12-07T16:03:54;40.63;;;21.37;;
6029;SDS011;3043;42.682;23.376;2022-12-07T16:06:22;44.40;;;21.87;;
6029;SDS011;3043;42.682;23.376;2022-12-07T16:08:47;34.87;;;18.93;;
6029;SDS011;3043;42.682;23.376;2022-12-07T16:11:13;34.23;;;18.83;;
6029;SDS011;3043;42.682;23.376;2022-12-07T16:13:38;33.47;;;18.33;;
6029;SDS011;3043;42.682;23.376;2022-12-07T16:16:05;34.00;;;20.37;;
6029;SDS011;3043;42.682;23.376;2022-12-07T16:18:32;33.73;;;17.87;;
6029;SDS011;3043;42.682;23.376;2022-12-07T16:20:58;39.93;;;20.27;;
6029;SDS011;3043;42.682;23.376;2022-12-07T16:23:23;43.80;;;24.37;;
6029;SDS011;3043;42.682;23.376;2022-12-07T16:25:49;58.93;;;29.37;;
6029;SDS011;3043;42.682;23.376;2022-12-07T16:28:14;134.27;;;80.87;;
6029;SDS011;3043;42.682;23.376;2022-12-07T16:30:40;67.40;;;34.13;;
6029;SDS011;3043;42.682;23.376;2022-12-07T16:33:05;121.00;;;69.63;;
6029;SDS011;3043;42.682;23.376;2022-12-07T16:35:31;125.77;;;76.80;;
6029;SDS011;3043;42.682;23.376;2022-12-07T16:37:56;154.77;;;94.10;;
6029;SDS011;3043;42.682;23.376;2022-12-07T16:40:21;85.80;;;49.00;;
6029;SDS011;3043;42.682;23.376;2022-12-07T16:42:47;77.83;;;44.97;;
6029;SDS011;3043;42.682;23.376;2022-12-07T16:45:12;74.90;;;43.43;;
6029;SDS011;3043;42.682;23.376;2022-12-07T16:47:38;61.53;;;34.40;;
6029;SDS011;3043;42.682;23.376;2022-12-07T16:50:04;90.27;;;51.17;;
6029;SDS011;3043;42.682;23.376;2022-12-07T16:52:30;87.97;;;49.70;;
6029;SDS011;3043;42.682;23.376;2022-12-07T16:54:56;127.50;;;70.83;;
6029;SDS011;3043;42.682;23.376;2022-12-07T16:57:21;139.47;;;80.07;;
6029;SDS011;3043;42.682;23.376;2022-12-07T16:59:46;121.67;;;69.50;;
6029;SDS011;3043;42.682;23.376;2022-12-07T17:02:12;100.93;;;56.33;;
6029;SDS011;3043;42.682;23.376;2022-12-07T17:04:37;90.00;;;50.20;;
6029;SDS011;3043;42.682;23.376;2022-12-07T17:07:07;33.47;;;20.87;;
6029;SDS011;3043;42.682;23.376;2022-12-07T17:09:33;74.77;;;45.17;;
6029;SDS011;3043;42.682;23.376;2022-12-07T17:11:59;94.93;;;50.47;;